Aviation Digital Data Service (ADDS)

Output produced by METARs form (1425 UTC 19 April 2019)
found at http://www.aviationweather.gov/metar/data/
 
GUCY 191400Z 19010KT 9999 FEW015 33/23 Q1011 NOSIG
TAF GUCY 191100Z 1912/2018 27006KT 9999 FEW015 SCT120 
     TEMPO 1912/1918 24012KT 
     TEMPO 2004/2010 VRB02KT SCT015 BKN110